createdAt,value
2022-10-28T00:02:30.309Z,84.28
2022-10-28T00:07:32.428Z,84.36
2022-10-28T00:12:38.347Z,84.34
2022-10-28T00:17:40.432Z,84.45
2022-10-28T00:22:42.953Z,84.29
2022-10-28T00:27:45.009Z,84.36
2022-10-28T00:32:47.106Z,84.32
2022-10-28T00:37:53.192Z,84.23
2022-10-28T00:42:55.651Z,84.44
2022-10-28T00:48:02.331Z,84.61
2022-10-28T00:53:14.318Z,84.94
2022-10-28T00:58:17.648Z,84.95
2022-10-28T01:03:19.765Z,84.94
2022-10-28T01:08:21.915Z,85.08
2022-10-28T01:13:38.791Z,85.12
2022-10-28T01:18:59.075Z,85.31
2022-10-28T01:24:42.592Z,85.33
2022-10-28T01:29:53.748Z,85.55
2022-10-28T01:35:11.670Z,85.81
2022-10-28T01:40:37.273Z,87.05
2022-10-28T01:45:57.196Z,87.40
2022-10-28T01:57:04.998Z,87.37
2022-10-28T02:02:07.062Z,87.46
2022-10-28T02:07:09.534Z,87.40
2022-10-28T02:12:20.307Z,87.67
2022-10-28T02:17:22.305Z,87.86
2022-10-28T02:22:24.324Z,87.62
2022-10-28T02:27:46.486Z,87.77
2022-10-28T02:32:57.060Z,88.01
2022-10-28T02:38:03.680Z,88.19
2022-10-28T02:43:09.914Z,87.85
2022-10-28T02:48:26.339Z,87.58
2022-10-28T02:53:37.224Z,87.25
2022-10-28T02:58:40.707Z,87.03
2022-10-28T03:03:43.011Z,86.93
2022-10-28T03:08:45.028Z,86.99
2022-10-28T03:13:47.156Z,87.09
2022-10-28T03:18:49.447Z,86.96
2022-10-28T03:23:51.534Z,87.05
2022-10-28T03:28:53.613Z,86.96
2022-10-28T03:33:55.740Z,86.99
2022-10-28T03:38:57.797Z,87.12
2022-10-28T03:43:59.990Z,87.15
2022-10-28T03:49:02.043Z,87.04
2022-10-28T03:54:04.207Z,87.10
2022-10-28T03:59:08.649Z,87.55
2022-10-28T04:04:10.701Z,88.13
2022-10-28T04:09:12.779Z,87.99
2022-10-28T04:14:15.035Z,88.02
2022-10-28T04:19:17.171Z,88.47
2022-10-28T04:24:19.168Z,88.52
2022-10-28T04:29:21.212Z,88.31
2022-10-28T04:34:23.347Z,88.27
2022-10-28T04:39:25.428Z,88.03
2022-10-28T04:44:27.465Z,88.13
2022-10-28T04:49:29.785Z,88.20
2022-10-28T04:54:31.861Z,88.23
2022-10-28T04:59:35.109Z,88.40
2022-10-28T05:04:52.885Z,88.68
2022-10-28T05:09:55.033Z,88.88
2022-10-28T05:14:57.120Z,88.92
2022-10-28T05:19:59.289Z,88.90
2022-10-28T05:25:01.358Z,88.83
2022-10-28T05:30:04.035Z,88.89
2022-10-28T05:35:06.673Z,88.98
2022-10-28T05:40:09.518Z,88.95
2022-10-28T05:45:12.607Z,88.99
2022-10-28T05:50:17.164Z,89.23
2022-10-28T05:55:20.461Z,89.63
2022-10-28T06:00:24.784Z,89.98
2022-10-28T06:05:26.980Z,89.99
2022-10-28T06:10:29.025Z,90.05
2022-10-28T06:15:30.042Z,89.98
2022-10-28T06:20:32.162Z,90.01
2022-10-28T06:25:34.213Z,90.13
2022-10-28T06:30:36.373Z,89.91
2022-10-28T06:35:38.480Z,89.60
2022-10-28T06:40:40.529Z,89.37
2022-10-28T06:45:45.226Z,89.31
2022-10-28T06:50:49.509Z,89.19
2022-10-28T06:55:55.545Z,89.07
2022-10-28T07:01:02.521Z,88.63
2022-10-28T07:06:04.921Z,88.37
2022-10-28T07:11:07.267Z,88.26
2022-10-28T07:16:09.478Z,88.16
2022-10-28T07:21:11.594Z,88.09
2022-10-28T07:26:13.745Z,88.09
2022-10-28T07:31:16.042Z,87.74
2022-10-28T07:36:18.267Z,87.52
2022-10-28T07:41:21.875Z,87.83
2022-10-28T07:46:23.977Z,87.73
2022-10-28T07:51:26.217Z,87.80
2022-10-28T07:56:28.261Z,87.54
2022-10-28T08:01:30.508Z,87.61
2022-10-28T08:06:35.473Z,87.33
2022-10-28T08:11:37.488Z,88.01
2022-10-28T08:16:39.540Z,88.66
2022-10-28T08:21:41.633Z,88.60
2022-10-28T08:26:44.649Z,88.38
2022-10-28T08:31:46.750Z,88.17
2022-10-28T08:36:48.877Z,87.10
2022-10-28T08:42:02.966Z,85.90
2022-10-28T08:47:35.637Z,84.98
2022-10-28T08:52:46.283Z,84.65
2022-10-28T08:57:53.669Z,85.00
2022-10-28T09:03:01.485Z,85.24
2022-10-28T09:08:04.459Z,84.89
2022-10-28T09:13:12.413Z,85.18
2022-10-28T09:18:20.498Z,85.00
2022-10-28T09:23:44.253Z,84.81
2022-10-28T09:29:18.217Z,84.53
2022-10-28T09:34:48.775Z,84.49
2022-10-28T09:39:55.343Z,84.07
2022-10-28T09:45:12.740Z,84.10
2022-10-28T09:50:19.244Z,83.44
2022-10-28T09:55:22.938Z,83.08
2022-10-28T10:00:25.189Z,84.19
2022-10-28T10:05:28.506Z,84.11
2022-10-28T10:10:39.884Z,83.01
2022-10-28T10:15:51.104Z,82.54
2022-10-28T10:21:00.723Z,81.66
2022-10-28T10:26:12.490Z,82.13
2022-10-28T10:31:23.902Z,82.49
2022-10-28T10:36:29.127Z,83.16
2022-10-28T10:41:38.629Z,83.15
2022-10-28T10:46:40.731Z,81.32
2022-10-28T10:52:01.346Z,81.51
2022-10-28T10:57:17.286Z,82.15
2022-10-28T11:02:37.074Z,81.95
2022-10-28T11:07:47.799Z,81.82
2022-10-28T11:12:58.568Z,82.48
2022-10-28T11:18:00.660Z,82.14
2022-10-28T11:23:17.413Z,82.81
2022-10-28T11:28:53.676Z,82.09
2022-10-28T11:34:20.640Z,81.89
2022-10-28T11:39:59.509Z,81.08
2022-10-28T11:45:23.918Z,81.13
2022-10-28T11:51:03.793Z,82.05
2022-10-28T11:56:27.740Z,81.95
2022-10-28T12:01:40.930Z,82.58
2022-10-28T12:07:14.904Z,82.69
2022-10-28T12:12:33.111Z,83.93
2022-10-28T12:17:53.687Z,82.47
2022-10-28T12:23:00.232Z,82.87
2022-10-28T12:28:07.522Z,83.07
2022-10-28T12:33:20.359Z,83.09
2022-10-28T12:38:25.138Z,82.92
2022-10-28T12:43:37.998Z,83.21
2022-10-28T12:54:15.479Z,83.17
2022-10-28T12:59:33.431Z,84.17
2022-10-28T13:04:37.832Z,84.71
2022-10-28T13:09:50.973Z,85.25
2022-10-28T13:15:15.125Z,85.14
2022-10-28T13:20:45.822Z,85.03
2022-10-28T13:26:15.071Z,85.46
2022-10-28T13:31:18.576Z,85.62
2022-10-28T13:36:27.223Z,86.83
2022-10-28T13:41:31.079Z,87.08
2022-10-28T13:47:02.507Z,87.39
2022-10-28T13:52:07.245Z,87.47
2022-10-28T13:57:30.928Z,87.38
2022-10-28T14:02:39.754Z,86.73
2022-10-28T14:07:58.639Z,87.70
2022-10-28T14:13:04.560Z,88.18
2022-10-28T14:18:42.091Z,87.72
2022-10-28T14:23:45.176Z,87.58
2022-10-28T14:28:52.082Z,87.73
2022-10-28T14:33:54.066Z,88.02
2022-10-28T14:39:15.306Z,87.73
2022-10-28T14:44:23.738Z,87.63
2022-10-28T14:49:36.291Z,88.02
2022-10-28T14:54:51.465Z,88.29
2022-10-28T14:59:55.398Z,88.41
2022-10-28T15:05:15.663Z,89.04
2022-10-28T15:10:29.749Z,89.19
2022-10-28T15:15:34.961Z,89.33
2022-10-28T15:20:36.996Z,89.37
2022-10-28T15:25:39.347Z,89.42
2022-10-28T15:30:46.397Z,89.52
2022-10-28T15:35:49.251Z,90.10
2022-10-28T15:40:51.986Z,90.68
2022-10-28T15:45:56.260Z,90.88
2022-10-28T15:51:19.526Z,90.89
2022-10-28T15:56:24.375Z,90.72
2022-10-28T16:01:38.510Z,89.96
2022-10-28T16:06:40.672Z,89.45
2022-10-28T16:11:46.307Z,89.49
2022-10-28T16:16:48.427Z,89.23
2022-10-28T16:21:50.464Z,89.54
2022-10-28T16:26:52.557Z,89.04
2022-10-28T16:31:54.636Z,89.77
2022-10-28T16:36:56.677Z,89.60
2022-10-28T16:41:58.934Z,89.25
2022-10-28T16:47:00.953Z,89.72
2022-10-28T16:52:03.111Z,89.51
2022-10-28T16:57:05.155Z,89.56
2022-10-28T17:02:33.990Z,89.39
2022-10-28T17:07:37.292Z,89.57
2022-10-28T17:12:39.660Z,89.90
2022-10-28T17:17:44.898Z,90.00
2022-10-28T17:22:47.604Z,90.48
2022-10-28T17:27:49.669Z,90.77
2022-10-28T17:32:53.466Z,89.87
2022-10-28T17:37:56.085Z,89.61
2022-10-28T17:42:59.103Z,89.70
2022-10-28T17:48:01.164Z,90.24
2022-10-28T17:53:03.236Z,90.71
2022-10-28T17:58:05.315Z,90.96
2022-10-28T18:03:09.666Z,90.84
2022-10-28T18:08:11.717Z,90.20
2022-10-28T18:13:13.766Z,90.11
2022-10-28T18:18:15.894Z,89.80
2022-10-28T18:23:17.935Z,89.93
2022-10-28T18:28:22.906Z,90.01
2022-10-28T18:33:24.925Z,90.03
2022-10-28T18:38:27.235Z,90.09
2022-10-28T18:43:29.666Z,90.36
2022-10-28T18:48:32.104Z,90.39
2022-10-28T18:53:39.226Z,90.07
2022-10-28T18:58:42.315Z,90.62
2022-10-28T19:03:44.760Z,90.16
2022-10-28T19:08:52.115Z,89.95
2022-10-28T19:13:54.289Z,89.16
2022-10-28T19:18:57.891Z,90.14
2022-10-28T19:24:00.344Z,90.25
2022-10-28T19:29:03.899Z,90.34
2022-10-28T19:34:06.155Z,89.60
2022-10-28T19:39:08.518Z,89.88
2022-10-28T19:44:10.651Z,89.59
2022-10-28T19:49:12.692Z,89.58
2022-10-28T19:54:15.874Z,89.93
2022-10-28T19:59:17.903Z,90.33
2022-10-28T20:04:21.544Z,90.40
2022-10-28T20:09:28.670Z,90.83
2022-10-28T20:14:31.810Z,90.99
2022-10-28T20:19:34.102Z,91.10
2022-10-28T20:24:36.123Z,91.26
2022-10-28T20:29:38.178Z,91.42
2022-10-28T20:34:40.230Z,91.34
2022-10-28T20:39:42.268Z,91.22
2022-10-28T20:44:44.275Z,90.92
2022-10-28T20:49:46.307Z,90.67
2022-10-28T20:54:48.399Z,90.67
2022-10-28T20:59:51.922Z,90.95
2022-10-28T21:04:54.037Z,91.00
2022-10-28T21:10:02.301Z,91.13
2022-10-28T21:15:08.306Z,91.10
2022-10-28T21:20:11.640Z,90.52
2022-10-28T21:25:14.103Z,89.96
2022-10-28T21:30:16.459Z,89.62
2022-10-28T21:35:18.974Z,89.31
2022-10-28T21:40:20.986Z,89.41
2022-10-28T21:45:24.291Z,89.29
2022-10-28T21:50:26.391Z,89.02
2022-10-28T21:55:45.675Z,89.03
2022-10-28T22:00:48.695Z,89.19
2022-10-28T22:05:51.059Z,89.59
2022-10-28T22:11:14.707Z,89.69
2022-10-28T22:16:33.780Z,89.62
2022-10-28T22:21:50.037Z,89.66
2022-10-28T22:26:52.978Z,89.63
2022-10-28T22:31:55.104Z,89.80
2022-10-28T22:36:58.411Z,90.02
2022-10-28T22:42:00.601Z,89.93
2022-10-28T22:47:03.298Z,90.10
2022-10-28T22:52:06.997Z,90.19
2022-10-28T22:57:09.098Z,89.77
2022-10-28T23:02:11.388Z,89.66
2022-10-28T23:07:15.064Z,89.29
2022-10-28T23:12:17.329Z,88.96
2022-10-28T23:17:19.536Z,89.06
2022-10-28T23:22:21.714Z,88.96
2022-10-28T23:27:24.090Z,89.65
2022-10-28T23:32:26.772Z,89.64
2022-10-28T23:37:28.903Z,89.85
2022-10-28T23:42:31.333Z,89.88
2022-10-28T23:47:33.481Z,89.84
2022-10-28T23:52:35.564Z,89.83
2022-10-28T23:57:37.688Z,90.75
